sensor_id;sensor_type;location;lat;lon;timestamp;P1;durP1;ratioP1;P2;durP2;ratioP2
25349;SDS011;13302;48.796;11.978;2023-02-19T00:01:57;0.90;;;0.90;;
25349;SDS011;13302;48.796;11.978;2023-02-19T00:04:44;0.80;;;0.80;;
25349;SDS011;13302;48.796;11.978;2023-02-19T00:07:31;0.97;;;0.97;;
25349;SDS011;13302;48.796;11.978;2023-02-19T00:10:18;1.03;;;1.03;;
25349;SDS011;13302;48.796;11.978;2023-02-19T00:13:05;0.90;;;0.90;;
25349;SDS011;13302;48.796;11.978;2023-02-19T00:15:52;0.90;;;0.90;;
25349;SDS011;13302;48.796;11.978;2023-02-19T00:18:40;0.90;;;0.90;;
25349;SDS011;13302;48.796;11.978;2023-02-19T00:21:28;1.00;;;1.00;;
25349;SDS011;13302;48.796;11.978;2023-02-19T00:24:15;0.97;;;0.97;;
25349;SDS011;13302;48.796;11.978;2023-02-19T00:27:02;0.80;;;0.80;;
25349;SDS011;13302;48.796;11.978;2023-02-19T00:29:49;1.00;;;1.00;;
25349;SDS011;13302;48.796;11.978;2023-02-19T00:32:38;1.17;;;1.17;;
25349;SDS011;13302;48.796;11.978;2023-02-19T00:35:28;0.93;;;0.93;;
25349;SDS011;13302;48.796;11.978;2023-02-19T00:38:15;0.90;;;0.90;;
25349;SDS011;13302;48.796;11.978;2023-02-19T00:41:02;0.83;;;0.83;;
25349;SDS011;13302;48.796;11.978;2023-02-19T00:44:06;1.23;;;1.10;;
25349;SDS011;13302;48.796;11.978;2023-02-19T00:46:53;1.37;;;1.37;;
25349;SDS011;13302;48.796;11.978;2023-02-19T00:49:40;1.17;;;1.17;;
25349;SDS011;13302;48.796;11.978;2023-02-19T00:52:27;1.40;;;1.40;;
25349;SDS011;13302;48.796;11.978;2023-02-19T00:55:14;1.40;;;1.40;;
25349;SDS011;13302;48.796;11.978;2023-02-19T00:58:01;1.40;;;1.40;;
25349;SDS011;13302;48.796;11.978;2023-02-19T01:00:48;1.40;;;1.40;;
25349;SDS011;13302;48.796;11.978;2023-02-19T01:03:36;1.60;;;1.60;;
25349;SDS011;13302;48.796;11.978;2023-02-19T01:06:24;1.67;;;1.67;;
25349;SDS011;13302;48.796;11.978;2023-02-19T01:09:11;1.90;;;1.83;;
25349;SDS011;13302;48.796;11.978;2023-02-19T01:12:00;1.43;;;1.43;;
25349;SDS011;13302;48.796;11.978;2023-02-19T01:14:47;1.60;;;1.60;;
25349;SDS011;13302;48.796;11.978;2023-02-19T01:17:34;1.50;;;1.50;;
25349;SDS011;13302;48.796;11.978;2023-02-19T01:20:22;1.43;;;1.43;;
25349;SDS011;13302;48.796;11.978;2023-02-19T01:23:09;1.60;;;1.60;;
25349;SDS011;13302;48.796;11.978;2023-02-19T01:25:57;1.30;;;1.30;;
25349;SDS011;13302;48.796;11.978;2023-02-19T01:28:44;1.40;;;1.40;;
25349;SDS011;13302;48.796;11.978;2023-02-19T01:31:32;1.10;;;1.10;;
25349;SDS011;13302;48.796;11.978;2023-02-19T01:34:20;1.40;;;1.40;;
25349;SDS011;13302;48.796;11.978;2023-02-19T01:37:07;1.50;;;1.50;;
25349;SDS011;13302;48.796;11.978;2023-02-19T01:39:58;1.23;;;1.23;;
25349;SDS011;13302;48.796;11.978;2023-02-19T01:42:45;1.73;;;1.63;;
25349;SDS011;13302;48.796;11.978;2023-02-19T01:45:33;1.70;;;1.70;;
25349;SDS011;13302;48.796;11.978;2023-02-19T01:51:22;2.20;;;2.10;;
25349;SDS011;13302;48.796;11.978;2023-02-19T01:54:10;2.27;;;2.17;;
25349;SDS011;13302;48.796;11.978;2023-02-19T01:57:00;2.30;;;2.20;;
25349;SDS011;13302;48.796;11.978;2023-02-19T01:59:51;2.40;;;2.30;;
25349;SDS011;13302;48.796;11.978;2023-02-19T02:02:45;2.30;;;2.20;;
25349;SDS011;13302;48.796;11.978;2023-02-19T02:05:39;2.77;;;2.67;;
25349;SDS011;13302;48.796;11.978;2023-02-19T02:08:32;2.50;;;2.40;;
25349;SDS011;13302;48.796;11.978;2023-02-19T02:11:49;2.60;;;2.50;;
25349;SDS011;13302;48.796;11.978;2023-02-19T02:14:39;2.83;;;2.63;;
25349;SDS011;13302;48.796;11.978;2023-02-19T02:17:38;2.63;;;2.53;;
25349;SDS011;13302;48.796;11.978;2023-02-19T02:26:59;1.90;;;1.90;;
25349;SDS011;13302;48.796;11.978;2023-02-19T02:30:04;2.30;;;2.20;;
25349;SDS011;13302;48.796;11.978;2023-02-19T02:36:17;1.80;;;1.80;;
25349;SDS011;13302;48.796;11.978;2023-02-19T02:39:08;1.90;;;1.90;;
25349;SDS011;13302;48.796;11.978;2023-02-19T02:41:59;2.30;;;2.20;;
25349;SDS011;13302;48.796;11.978;2023-02-19T02:51:33;2.10;;;2.07;;
25349;SDS011;13302;48.796;11.978;2023-02-19T02:54:32;1.73;;;1.73;;
25349;SDS011;13302;48.796;11.978;2023-02-19T02:57:41;2.23;;;2.13;;
25349;SDS011;13302;48.796;11.978;2023-02-19T03:00:28;2.10;;;2.00;;
25349;SDS011;13302;48.796;11.978;2023-02-19T03:03:38;2.33;;;2.20;;
25349;SDS011;13302;48.796;11.978;2023-02-19T03:06:29;2.13;;;2.03;;
25349;SDS011;13302;48.796;11.978;2023-02-19T03:09:28;2.30;;;2.20;;
25349;SDS011;13302;48.796;11.978;2023-02-19T03:12:27;2.63;;;2.43;;
25349;SDS011;13302;48.796;11.978;2023-02-19T03:15:40;2.23;;;2.10;;
25349;SDS011;13302;48.796;11.978;2023-02-19T03:18:50;2.03;;;1.90;;
25349;SDS011;13302;48.796;11.978;2023-02-19T03:22:07;2.10;;;2.00;;
25349;SDS011;13302;48.796;11.978;2023-02-19T03:25:11;2.37;;;2.27;;
25349;SDS011;13302;48.796;11.978;2023-02-19T03:28:22;2.00;;;1.93;;
25349;SDS011;13302;48.796;11.978;2023-02-19T03:31:32;1.60;;;1.60;;
25349;SDS011;13302;48.796;11.978;2023-02-19T03:34:21;1.60;;;1.60;;
25349;SDS011;13302;48.796;11.978;2023-02-19T03:37:18;1.90;;;1.80;;
25349;SDS011;13302;48.796;11.978;2023-02-19T03:40:11;1.70;;;1.67;;
25349;SDS011;13302;48.796;11.978;2023-02-19T03:43:08;2.40;;;2.23;;
25349;SDS011;13302;48.796;11.978;2023-02-19T03:46:13;2.30;;;2.10;;
25349;SDS011;13302;48.796;11.978;2023-02-19T03:49:12;1.60;;;1.60;;
25349;SDS011;13302;48.796;11.978;2023-02-19T03:52:14;1.70;;;1.70;;
25349;SDS011;13302;48.796;11.978;2023-02-19T03:55:11;2.07;;;1.93;;
25349;SDS011;13302;48.796;11.978;2023-02-19T04:01:18;1.87;;;1.87;;
25349;SDS011;13302;48.796;11.978;2023-02-19T04:07:14;1.77;;;1.67;;
25349;SDS011;13302;48.796;11.978;2023-02-19T04:10:03;2.10;;;2.00;;
25349;SDS011;13302;48.796;11.978;2023-02-19T04:12:55;2.07;;;1.97;;
25349;SDS011;13302;48.796;11.978;2023-02-19T04:15:47;1.87;;;1.83;;
25349;SDS011;13302;48.796;11.978;2023-02-19T04:18:38;1.63;;;1.60;;
25349;SDS011;13302;48.796;11.978;2023-02-19T04:21:28;1.97;;;1.87;;
25349;SDS011;13302;48.796;11.978;2023-02-19T04:24:30;1.70;;;1.70;;
25349;SDS011;13302;48.796;11.978;2023-02-19T04:27:21;1.97;;;1.87;;
25349;SDS011;13302;48.796;11.978;2023-02-19T04:30:09;2.07;;;1.97;;
25349;SDS011;13302;48.796;11.978;2023-02-19T04:32:57;2.20;;;2.10;;
25349;SDS011;13302;48.796;11.978;2023-02-19T04:35:44;2.30;;;2.20;;
25349;SDS011;13302;48.796;11.978;2023-02-19T04:38:31;2.17;;;2.07;;
25349;SDS011;13302;48.796;11.978;2023-02-19T04:41:19;2.00;;;1.90;;
25349;SDS011;13302;48.796;11.978;2023-02-19T04:44:05;2.10;;;2.00;;
25349;SDS011;13302;48.796;11.978;2023-02-19T04:46:53;2.27;;;2.17;;
25349;SDS011;13302;48.796;11.978;2023-02-19T04:49:40;2.13;;;2.03;;
25349;SDS011;13302;48.796;11.978;2023-02-19T04:52:27;2.30;;;2.20;;
25349;SDS011;13302;48.796;11.978;2023-02-19T04:55:14;2.43;;;2.33;;
25349;SDS011;13302;48.796;11.978;2023-02-19T04:58:01;2.23;;;2.13;;
25349;SDS011;13302;48.796;11.978;2023-02-19T05:00:51;1.90;;;1.80;;
25349;SDS011;13302;48.796;11.978;2023-02-19T05:03:38;2.30;;;2.20;;
25349;SDS011;13302;48.796;11.978;2023-02-19T05:06:26;2.10;;;2.00;;
25349;SDS011;13302;48.796;11.978;2023-02-19T05:09:13;2.23;;;2.13;;
25349;SDS011;13302;48.796;11.978;2023-02-19T05:12:00;2.07;;;1.97;;
25349;SDS011;13302;48.796;11.978;2023-02-19T05:14:47;2.07;;;2.00;;
25349;SDS011;13302;48.796;11.978;2023-02-19T05:17:34;2.70;;;2.50;;
25349;SDS011;13302;48.796;11.978;2023-02-19T05:20:21;2.40;;;2.30;;
25349;SDS011;13302;48.796;11.978;2023-02-19T05:23:08;2.27;;;2.17;;
25349;SDS011;13302;48.796;11.978;2023-02-19T05:25:55;1.93;;;1.83;;
25349;SDS011;13302;48.796;11.978;2023-02-19T05:28:43;2.20;;;2.10;;
25349;SDS011;13302;48.796;11.978;2023-02-19T05:31:31;1.93;;;1.80;;
25349;SDS011;13302;48.796;11.978;2023-02-19T05:34:19;2.40;;;2.30;;
25349;SDS011;13302;48.796;11.978;2023-02-19T05:37:06;2.27;;;2.17;;
25349;SDS011;13302;48.796;11.978;2023-02-19T05:39:53;2.30;;;2.20;;
25349;SDS011;13302;48.796;11.978;2023-02-19T05:42:40;2.27;;;2.23;;
25349;SDS011;13302;48.796;11.978;2023-02-19T05:45:27;2.00;;;2.00;;
25349;SDS011;13302;48.796;11.978;2023-02-19T05:48:14;2.40;;;2.20;;
25349;SDS011;13302;48.796;11.978;2023-02-19T05:51:09;2.37;;;2.27;;
25349;SDS011;13302;48.796;11.978;2023-02-19T05:53:58;2.40;;;2.30;;
25349;SDS011;13302;48.796;11.978;2023-02-19T05:56:45;2.30;;;2.20;;
25349;SDS011;13302;48.796;11.978;2023-02-19T05:59:32;2.43;;;2.33;;
25349;SDS011;13302;48.796;11.978;2023-02-19T06:02:19;2.00;;;2.00;;
25349;SDS011;13302;48.796;11.978;2023-02-19T06:05:06;2.00;;;1.90;;
25349;SDS011;13302;48.796;11.978;2023-02-19T06:07:54;2.10;;;2.00;;
25349;SDS011;13302;48.796;11.978;2023-02-19T06:10:41;1.83;;;1.73;;
25349;SDS011;13302;48.796;11.978;2023-02-19T06:13:29;2.00;;;1.90;;
25349;SDS011;13302;48.796;11.978;2023-02-19T06:16:16;1.40;;;1.40;;
25349;SDS011;13302;48.796;11.978;2023-02-19T06:19:04;1.73;;;1.63;;
25349;SDS011;13302;48.796;11.978;2023-02-19T06:21:51;1.50;;;1.43;;
25349;SDS011;13302;48.796;11.978;2023-02-19T06:24:38;1.73;;;1.73;;
25349;SDS011;13302;48.796;11.978;2023-02-19T06:27:25;1.37;;;1.37;;
25349;SDS011;13302;48.796;11.978;2023-02-19T06:30:12;1.30;;;1.30;;
25349;SDS011;13302;48.796;11.978;2023-02-19T06:32:59;1.70;;;1.60;;
25349;SDS011;13302;48.796;11.978;2023-02-19T06:35:46;0.90;;;0.90;;
25349;SDS011;13302;48.796;11.978;2023-02-19T06:38:33;0.90;;;0.90;;
25349;SDS011;13302;48.796;11.978;2023-02-19T06:41:20;1.00;;;1.00;;
25349;SDS011;13302;48.796;11.978;2023-02-19T06:44:07;0.90;;;0.90;;
25349;SDS011;13302;48.796;11.978;2023-02-19T06:46:54;0.60;;;0.60;;
25349;SDS011;13302;48.796;11.978;2023-02-19T06:49:41;0.60;;;0.60;;
25349;SDS011;13302;48.796;11.978;2023-02-19T06:52:28;0.60;;;0.60;;
25349;SDS011;13302;48.796;11.978;2023-02-19T06:55:15;0.40;;;0.40;;
25349;SDS011;13302;48.796;11.978;2023-02-19T06:58:02;0.50;;;0.50;;
25349;SDS011;13302;48.796;11.978;2023-02-19T07:00:49;0.40;;;0.40;;
25349;SDS011;13302;48.796;11.978;2023-02-19T07:03:37;0.50;;;0.50;;
25349;SDS011;13302;48.796;11.978;2023-02-19T07:06:24;0.60;;;0.60;;
25349;SDS011;13302;48.796;11.978;2023-02-19T07:09:12;0.60;;;0.60;;
25349;SDS011;13302;48.796;11.978;2023-02-19T07:11:59;0.40;;;0.40;;
25349;SDS011;13302;48.796;11.978;2023-02-19T07:14:46;0.30;;;0.30;;
25349;SDS011;13302;48.796;11.978;2023-02-19T07:17:33;0.53;;;0.47;;
25349;SDS011;13302;48.796;11.978;2023-02-19T07:20:21;0.67;;;0.67;;
25349;SDS011;13302;48.796;11.978;2023-02-19T07:23:08;0.37;;;0.37;;
25349;SDS011;13302;48.796;11.978;2023-02-19T07:25:55;0.30;;;0.30;;
25349;SDS011;13302;48.796;11.978;2023-02-19T07:28:42;0.30;;;0.30;;
25349;SDS011;13302;48.796;11.978;2023-02-19T07:31:31;0.77;;;0.77;;
25349;SDS011;13302;48.796;11.978;2023-02-19T07:34:18;0.80;;;0.80;;
25349;SDS011;13302;48.796;11.978;2023-02-19T07:37:05;0.70;;;0.70;;
25349;SDS011;13302;48.796;11.978;2023-02-19T07:39:52;0.40;;;0.33;;
25349;SDS011;13302;48.796;11.978;2023-02-19T07:42:39;0.40;;;0.40;;
25349;SDS011;13302;48.796;11.978;2023-02-19T07:45:26;0.33;;;0.20;;
25349;SDS011;13302;48.796;11.978;2023-02-19T07:48:13;1.07;;;0.30;;
25349;SDS011;13302;48.796;11.978;2023-02-19T07:51:01;0.33;;;0.33;;
25349;SDS011;13302;48.796;11.978;2023-02-19T07:53:49;0.30;;;0.30;;
25349;SDS011;13302;48.796;11.978;2023-02-19T07:56:36;0.30;;;0.30;;
25349;SDS011;13302;48.796;11.978;2023-02-19T07:59:23;0.53;;;0.23;;
25349;SDS011;13302;48.796;11.978;2023-02-19T08:02:14;0.40;;;0.40;;
25349;SDS011;13302;48.796;11.978;2023-02-19T08:05:21;0.40;;;0.40;;
25349;SDS011;13302;48.796;11.978;2023-02-19T08:08:10;0.67;;;0.50;;
25349;SDS011;13302;48.796;11.978;2023-02-19T08:10:59;0.40;;;0.40;;
25349;SDS011;13302;48.796;11.978;2023-02-19T08:14:06;0.50;;;0.50;;
25349;SDS011;13302;48.796;11.978;2023-02-19T08:16:53;0.40;;;0.40;;
25349;SDS011;13302;48.796;11.978;2023-02-19T08:19:41;0.47;;;0.47;;
25349;SDS011;13302;48.796;11.978;2023-02-19T08:22:28;0.30;;;0.30;;
25349;SDS011;13302;48.796;11.978;2023-02-19T08:25:15;0.40;;;0.40;;
25349;SDS011;13302;48.796;11.978;2023-02-19T08:28:02;0.33;;;0.33;;
25349;SDS011;13302;48.796;11.978;2023-02-19T08:30:50;0.50;;;0.50;;
25349;SDS011;13302;48.796;11.978;2023-02-19T08:33:38;0.60;;;0.60;;
25349;SDS011;13302;48.796;11.978;2023-02-19T08:36:25;0.50;;;0.50;;
25349;SDS011;13302;48.796;11.978;2023-02-19T08:39:13;0.70;;;0.70;;
25349;SDS011;13302;48.796;11.978;2023-02-19T08:42:00;0.47;;;0.47;;
25349;SDS011;13302;48.796;11.978;2023-02-19T08:44:47;0.40;;;0.40;;
25349;SDS011;13302;48.796;11.978;2023-02-19T08:47:34;0.30;;;0.30;;
25349;SDS011;13302;48.796;11.978;2023-02-19T08:50:21;0.47;;;0.47;;
25349;SDS011;13302;48.796;11.978;2023-02-19T08:53:08;0.40;;;0.40;;
25349;SDS011;13302;48.796;11.978;2023-02-19T08:55:56;0.50;;;0.50;;
25349;SDS011;13302;48.796;11.978;2023-02-19T08:58:43;0.43;;;0.43;;
25349;SDS011;13302;48.796;11.978;2023-02-19T09:01:30;0.50;;;0.50;;
25349;SDS011;13302;48.796;11.978;2023-02-19T09:04:17;0.40;;;0.40;;
25349;SDS011;13302;48.796;11.978;2023-02-19T09:07:04;0.40;;;0.40;;
25349;SDS011;13302;48.796;11.978;2023-02-19T09:09:56;0.47;;;0.47;;
25349;SDS011;13302;48.796;11.978;2023-02-19T09:12:44;0.40;;;0.40;;
25349;SDS011;13302;48.796;11.978;2023-02-19T09:15:31;0.37;;;0.37;;
25349;SDS011;13302;48.796;11.978;2023-02-19T09:18:19;0.53;;;0.53;;
25349;SDS011;13302;48.796;11.978;2023-02-19T09:21:06;0.60;;;0.60;;
25349;SDS011;13302;48.796;11.978;2023-02-19T09:23:53;0.40;;;0.40;;
25349;SDS011;13302;48.796;11.978;2023-02-19T09:26:39;0.40;;;0.40;;
25349;SDS011;13302;48.796;11.978;2023-02-19T09:29:27;0.50;;;0.50;;
25349;SDS011;13302;48.796;11.978;2023-02-19T09:32:14;0.43;;;0.43;;
25349;SDS011;13302;48.796;11.978;2023-02-19T09:35:04;0.50;;;0.50;;
25349;SDS011;13302;48.796;11.978;2023-02-19T09:37:51;0.40;;;0.40;;
25349;SDS011;13302;48.796;11.978;2023-02-19T09:40:38;0.43;;;0.43;;
25349;SDS011;13302;48.796;11.978;2023-02-19T09:43:26;0.40;;;0.40;;
25349;SDS011;13302;48.796;11.978;2023-02-19T09:46:23;0.50;;;0.50;;
25349;SDS011;13302;48.796;11.978;2023-02-19T09:52:32;0.50;;;0.50;;
25349;SDS011;13302;48.796;11.978;2023-02-19T09:55:30;0.40;;;0.40;;
25349;SDS011;13302;48.796;11.978;2023-02-19T09:58:32;0.50;;;0.50;;
25349;SDS011;13302;48.796;11.978;2023-02-19T10:01:22;0.40;;;0.40;;
25349;SDS011;13302;48.796;11.978;2023-02-19T10:04:12;0.40;;;0.40;;
25349;SDS011;13302;48.796;11.978;2023-02-19T10:06:59;0.40;;;0.40;;
25349;SDS011;13302;48.796;11.978;2023-02-19T10:09:54;0.50;;;0.50;;
25349;SDS011;13302;48.796;11.978;2023-02-19T10:12:46;0.40;;;0.40;;
25349;SDS011;13302;48.796;11.978;2023-02-19T10:18:41;0.83;;;0.83;;
25349;SDS011;13302;48.796;11.978;2023-02-19T10:21:30;0.60;;;0.60;;
25349;SDS011;13302;48.796;11.978;2023-02-19T10:24:19;0.70;;;0.70;;
25349;SDS011;13302;48.796;11.978;2023-02-19T10:27:10;0.70;;;0.70;;
25349;SDS011;13302;48.796;11.978;2023-02-19T10:29:59;0.87;;;0.87;;
25349;SDS011;13302;48.796;11.978;2023-02-19T10:32:59;0.70;;;0.70;;
25349;SDS011;13302;48.796;11.978;2023-02-19T10:36:05;0.70;;;0.70;;
25349;SDS011;13302;48.796;11.978;2023-02-19T10:42:17;0.60;;;0.60;;
25349;SDS011;13302;48.796;11.978;2023-02-19T10:45:11;0.60;;;0.60;;
25349;SDS011;13302;48.796;11.978;2023-02-19T10:48:04;0.83;;;0.83;;
25349;SDS011;13302;48.796;11.978;2023-02-19T10:50:54;1.13;;;0.80;;
25349;SDS011;13302;48.796;11.978;2023-02-19T10:53:46;0.60;;;0.60;;
25349;SDS011;13302;48.796;11.978;2023-02-19T10:56:35;0.90;;;0.90;;
25349;SDS011;13302;48.796;11.978;2023-02-19T10:59:25;0.70;;;0.70;;
25349;SDS011;13302;48.796;11.978;2023-02-19T11:02:15;0.80;;;0.80;;
25349;SDS011;13302;48.796;11.978;2023-02-19T11:07:57;0.70;;;0.70;;
25349;SDS011;13302;48.796;11.978;2023-02-19T11:10:44;0.80;;;0.80;;
25349;SDS011;13302;48.796;11.978;2023-02-19T11:13:33;0.60;;;0.60;;
25349;SDS011;13302;48.796;11.978;2023-02-19T11:16:23;0.70;;;0.70;;
25349;SDS011;13302;48.796;11.978;2023-02-19T11:22:29;0.80;;;0.80;;
25349;SDS011;13302;48.796;11.978;2023-02-19T11:25:23;0.80;;;0.80;;
25349;SDS011;13302;48.796;11.978;2023-02-19T11:28:20;1.00;;;0.90;;
25349;SDS011;13302;48.796;11.978;2023-02-19T11:31:20;1.03;;;0.97;;
25349;SDS011;13302;48.796;11.978;2023-02-19T11:37:08;0.80;;;0.80;;
25349;SDS011;13302;48.796;11.978;2023-02-19T11:40:00;1.00;;;1.00;;
25349;SDS011;13302;48.796;11.978;2023-02-19T11:42:48;0.70;;;0.70;;
25349;SDS011;13302;48.796;11.978;2023-02-19T11:45:56;0.93;;;0.90;;
25349;SDS011;13302;48.796;11.978;2023-02-19T11:58:27;0.87;;;0.87;;
25349;SDS011;13302;48.796;11.978;2023-02-19T12:13:38;1.10;;;1.10;;
25349;SDS011;13302;48.796;11.978;2023-02-19T12:16:32;1.30;;;1.30;;
25349;SDS011;13302;48.796;11.978;2023-02-19T12:19:43;1.53;;;1.53;;
25349;SDS011;13302;48.796;11.978;2023-02-19T12:22:49;1.40;;;1.30;;
25349;SDS011;13302;48.796;11.978;2023-02-19T12:28:56;1.00;;;1.00;;
25349;SDS011;13302;48.796;11.978;2023-02-19T12:32:16;1.13;;;1.03;;
25349;SDS011;13302;48.796;11.978;2023-02-19T12:35:16;0.90;;;0.90;;
25349;SDS011;13302;48.796;11.978;2023-02-19T12:38:21;1.33;;;0.70;;
25349;SDS011;13302;48.796;11.978;2023-02-19T12:44:16;0.83;;;0.83;;
25349;SDS011;13302;48.796;11.978;2023-02-19T12:47:12;0.80;;;0.80;;
25349;SDS011;13302;48.796;11.978;2023-02-19T12:50:26;1.53;;;0.80;;
25349;SDS011;13302;48.796;11.978;2023-02-19T12:56:34;0.90;;;0.90;;
25349;SDS011;13302;48.796;11.978;2023-02-19T12:59:35;1.10;;;1.10;;
25349;SDS011;13302;48.796;11.978;2023-02-19T13:05:44;1.60;;;1.00;;
25349;SDS011;13302;48.796;11.978;2023-02-19T13:08:38;0.83;;;0.67;;
25349;SDS011;13302;48.796;11.978;2023-02-19T13:11:53;1.00;;;0.97;;
25349;SDS011;13302;48.796;11.978;2023-02-19T13:14:46;0.90;;;0.90;;
25349;SDS011;13302;48.796;11.978;2023-02-19T13:20:32;1.20;;;1.10;;
25349;SDS011;13302;48.796;11.978;2023-02-19T13:23:23;0.93;;;0.90;;
25349;SDS011;13302;48.796;11.978;2023-02-19T13:30:00;1.23;;;1.00;;
25349;SDS011;13302;48.796;11.978;2023-02-19T13:33:13;1.13;;;1.00;;
25349;SDS011;13302;48.796;11.978;2023-02-19T13:36:10;0.87;;;0.87;;
25349;SDS011;13302;48.796;11.978;2023-02-19T13:39:02;1.77;;;1.00;;
25349;SDS011;13302;48.796;11.978;2023-02-19T13:41:51;0.80;;;0.80;;
25349;SDS011;13302;48.796;11.978;2023-02-19T13:44:41;0.97;;;0.97;;
25349;SDS011;13302;48.796;11.978;2023-02-19T13:50:40;2.20;;;1.80;;
25349;SDS011;13302;48.796;11.978;2023-02-19T13:59:23;2.30;;;1.03;;
25349;SDS011;13302;48.796;11.978;2023-02-19T14:05:09;1.40;;;1.40;;
25349;SDS011;13302;48.796;11.978;2023-02-19T14:07:56;2.70;;;2.50;;
25349;SDS011;13302;48.796;11.978;2023-02-19T14:10:51;2.30;;;2.10;;
25349;SDS011;13302;48.796;11.978;2023-02-19T14:25:34;1.43;;;1.33;;
25349;SDS011;13302;48.796;11.978;2023-02-19T14:28:26;1.70;;;1.00;;
25349;SDS011;13302;48.796;11.978;2023-02-19T14:31:26;1.33;;;1.33;;
25349;SDS011;13302;48.796;11.978;2023-02-19T14:34:21;0.90;;;0.90;;
25349;SDS011;13302;48.796;11.978;2023-02-19T14:37:15;1.23;;;1.13;;
25349;SDS011;13302;48.796;11.978;2023-02-19T14:40:05;1.73;;;1.60;;
25349;SDS011;13302;48.796;11.978;2023-02-19T14:42:53;1.43;;;1.27;;
25349;SDS011;13302;48.796;11.978;2023-02-19T14:45:44;1.70;;;1.60;;
25349;SDS011;13302;48.796;11.978;2023-02-19T14:48:38;2.90;;;2.50;;
25349;SDS011;13302;48.796;11.978;2023-02-19T14:51:35;2.27;;;1.53;;
25349;SDS011;13302;48.796;11.978;2023-02-19T14:57:37;1.93;;;1.70;;
25349;SDS011;13302;48.796;11.978;2023-02-19T15:00:30;1.73;;;1.63;;
25349;SDS011;13302;48.796;11.978;2023-02-19T15:03:25;1.50;;;1.40;;
25349;SDS011;13302;48.796;11.978;2023-02-19T15:06:20;1.37;;;1.37;;
25349;SDS011;13302;48.796;11.978;2023-02-19T15:09:09;2.00;;;1.80;;
25349;SDS011;13302;48.796;11.978;2023-02-19T15:11:58;1.57;;;1.47;;
25349;SDS011;13302;48.796;11.978;2023-02-19T15:14:46;2.60;;;2.40;;
25349;SDS011;13302;48.796;11.978;2023-02-19T15:17:35;2.93;;;2.73;;
25349;SDS011;13302;48.796;11.978;2023-02-19T15:20:33;5.97;;;5.37;;
25349;SDS011;13302;48.796;11.978;2023-02-19T15:23:22;9.67;;;7.67;;
25349;SDS011;13302;48.796;11.978;2023-02-19T15:26:21;5.83;;;4.57;;
25349;SDS011;13302;48.796;11.978;2023-02-19T15:29:13;3.67;;;3.00;;
25349;SDS011;13302;48.796;11.978;2023-02-19T15:32:12;11.73;;;8.27;;
25349;SDS011;13302;48.796;11.978;2023-02-19T15:35:03;13.27;;;9.43;;
25349;SDS011;13302;48.796;11.978;2023-02-19T15:37:50;18.07;;;11.73;;
25349;SDS011;13302;48.796;11.978;2023-02-19T15:40:42;12.57;;;8.73;;
25349;SDS011;13302;48.796;11.978;2023-02-19T15:43:42;9.23;;;6.83;;
25349;SDS011;13302;48.796;11.978;2023-02-19T15:46:36;13.43;;;9.47;;
25349;SDS011;13302;48.796;11.978;2023-02-19T15:49:28;17.00;;;11.20;;
25349;SDS011;13302;48.796;11.978;2023-02-19T15:52:26;13.47;;;9.63;;
25349;SDS011;13302;48.796;11.978;2023-02-19T15:58:46;8.87;;;7.03;;
25349;SDS011;13302;48.796;11.978;2023-02-19T16:01:36;11.33;;;8.87;;
25349;SDS011;13302;48.796;11.978;2023-02-19T16:04:25;9.93;;;7.93;;
25349;SDS011;13302;48.796;11.978;2023-02-19T16:07:23;11.30;;;7.87;;
25349;SDS011;13302;48.796;11.978;2023-02-19T16:13:05;10.20;;;7.23;;
25349;SDS011;13302;48.796;11.978;2023-02-19T16:19:08;0.93;;;0.93;;
25349;SDS011;13302;48.796;11.978;2023-02-19T16:21:55;0.90;;;0.90;;
25349;SDS011;13302;48.796;11.978;2023-02-19T16:24:44;0.73;;;0.73;;
25349;SDS011;13302;48.796;11.978;2023-02-19T16:27:38;1.10;;;1.00;;
25349;SDS011;13302;48.796;11.978;2023-02-19T16:30:31;1.20;;;1.17;;
25349;SDS011;13302;48.796;11.978;2023-02-19T16:36:19;1.30;;;1.30;;
25349;SDS011;13302;48.796;11.978;2023-02-19T16:44:45;0.80;;;0.80;;
25349;SDS011;13302;48.796;11.978;2023-02-19T16:47:33;0.90;;;0.90;;
25349;SDS011;13302;48.796;11.978;2023-02-19T16:50:24;0.80;;;0.80;;
25349;SDS011;13302;48.796;11.978;2023-02-19T16:53:21;0.70;;;0.70;;
25349;SDS011;13302;48.796;11.978;2023-02-19T16:56:15;0.67;;;0.67;;
25349;SDS011;13302;48.796;11.978;2023-02-19T16:59:04;0.90;;;0.90;;
25349;SDS011;13302;48.796;11.978;2023-02-19T17:01:53;1.03;;;0.80;;
25349;SDS011;13302;48.796;11.978;2023-02-19T17:04:40;0.70;;;0.70;;
25349;SDS011;13302;48.796;11.978;2023-02-19T17:07:27;2.00;;;0.93;;
25349;SDS011;13302;48.796;11.978;2023-02-19T17:10:18;1.10;;;1.10;;
25349;SDS011;13302;48.796;11.978;2023-02-19T17:13:08;0.97;;;0.90;;
25349;SDS011;13302;48.796;11.978;2023-02-19T17:15:55;0.90;;;0.90;;
25349;SDS011;13302;48.796;11.978;2023-02-19T17:18:43;1.30;;;1.20;;
25349;SDS011;13302;48.796;11.978;2023-02-19T17:21:30;1.50;;;1.43;;
25349;SDS011;13302;48.796;11.978;2023-02-19T17:24:19;1.73;;;1.63;;
25349;SDS011;13302;48.796;11.978;2023-02-19T17:27:08;1.40;;;1.40;;
25349;SDS011;13302;48.796;11.978;2023-02-19T17:29:56;1.75;;;1.40;;
25349;SDS011;13302;48.796;11.978;2023-02-19T17:32:43;1.23;;;1.23;;
25349;SDS011;13302;48.796;11.978;2023-02-19T17:35:31;6.00;;;5.40;;
25349;SDS011;13302;48.796;11.978;2023-02-19T17:38:17;18.20;;;14.50;;
25349;SDS011;13302;48.796;11.978;2023-02-19T17:41:04;16.40;;;14.70;;
25349;SDS011;13302;48.796;11.978;2023-02-19T17:43:51;6.73;;;5.93;;
25349;SDS011;13302;48.796;11.978;2023-02-19T17:46:39;4.30;;;2.90;;
25349;SDS011;13302;48.796;11.978;2023-02-19T17:49:26;2.17;;;2.07;;
25349;SDS011;13302;48.796;11.978;2023-02-19T17:52:13;2.67;;;2.47;;
25349;SDS011;13302;48.796;11.978;2023-02-19T17:55:03;1.77;;;1.67;;
25349;SDS011;13302;48.796;11.978;2023-02-19T17:57:50;2.80;;;1.80;;
25349;SDS011;13302;48.796;11.978;2023-02-19T18:00:38;1.70;;;1.60;;
25349;SDS011;13302;48.796;11.978;2023-02-19T18:03:25;2.77;;;1.40;;
25349;SDS011;13302;48.796;11.978;2023-02-19T18:06:12;2.50;;;1.87;;
25349;SDS011;13302;48.796;11.978;2023-02-19T18:08:59;1.73;;;1.63;;
25349;SDS011;13302;48.796;11.978;2023-02-19T18:11:46;2.73;;;2.50;;
25349;SDS011;13302;48.796;11.978;2023-02-19T18:14:34;2.13;;;2.03;;
25349;SDS011;13302;48.796;11.978;2023-02-19T18:17:24;2.20;;;1.93;;
25349;SDS011;13302;48.796;11.978;2023-02-19T18:20:13;1.27;;;1.10;;
25349;SDS011;13302;48.796;11.978;2023-02-19T18:23:04;1.47;;;1.33;;
25349;SDS011;13302;48.796;11.978;2023-02-19T18:25:51;1.20;;;1.20;;
25349;SDS011;13302;48.796;11.978;2023-02-19T18:28:38;1.00;;;1.00;;
25349;SDS011;13302;48.796;11.978;2023-02-19T18:31:25;1.17;;;1.10;;
25349;SDS011;13302;48.796;11.978;2023-02-19T18:34:16;1.10;;;1.00;;
25349;SDS011;13302;48.796;11.978;2023-02-19T18:37:04;0.90;;;0.90;;
25349;SDS011;13302;48.796;11.978;2023-02-19T18:39:51;1.60;;;1.50;;
25349;SDS011;13302;48.796;11.978;2023-02-19T18:42:38;2.07;;;1.83;;
25349;SDS011;13302;48.796;11.978;2023-02-19T18:45:26;2.17;;;2.07;;
25349;SDS011;13302;48.796;11.978;2023-02-19T18:48:15;7.33;;;6.60;;
25349;SDS011;13302;48.796;11.978;2023-02-19T18:51:02;4.50;;;4.10;;
25349;SDS011;13302;48.796;11.978;2023-02-19T18:53:50;2.20;;;2.10;;
25349;SDS011;13302;48.796;11.978;2023-02-19T18:56:41;1.60;;;1.50;;
25349;SDS011;13302;48.796;11.978;2023-02-19T18:59:29;1.60;;;1.50;;
25349;SDS011;13302;48.796;11.978;2023-02-19T19:02:17;1.70;;;1.60;;
25349;SDS011;13302;48.796;11.978;2023-02-19T19:05:04;1.60;;;1.50;;